<?xml version="1.0" encoding="UTF-8" standalone="no" ?>
<gpx xmlns="http://www.topografix.com/GPX/1/1" xmlns:xsi="http://www.w3.org/2001/XMLSchema-instance" xsi:schemaLocation="http://www.topografix.com/GPX/1/1 http://www.topografix.com/GPX/1/1/gpx.xsd" version="1.1" creator="VisuGPX - https://www.visugpx.com">
  <metadata>
    <name>42  forez</name>
  </metadata>
  <trk>
    <name><![CDATA[J3  La Cote Fournier Salayes]]></name>
    <trkseg>
      <trkpt lat="45.40195" lon="4.08391">
        <ele>782</ele>
        <time>2021-01-19T14:06:29Z</time>
      </trkpt>
      <trkpt lat="45.4025" lon="4.08317">
        <ele>785</ele>
        <time>2021-01-19T14:07:30Z</time>
      </trkpt>
      <trkpt lat="45.40289" lon="4.08254">
        <ele>787</ele>
        <time>2021-01-19T14:08:17Z</time>
      </trkpt>
      <trkpt lat="45.40262" lon="4.08259">
        <ele>786</ele>
        <time>2021-01-19T14:08:39Z</time>
      </trkpt>
      <trkpt lat="45.40237" lon="4.08253">
        <ele>785</ele>
        <time>2021-01-19T14:08:59Z</time>
      </trkpt>
      <trkpt lat="45.40207" lon="4.08219">
        <ele>785</ele>
        <time>2021-01-19T14:09:30Z</time>
      </trkpt>
      <trkpt lat="45.402" lon="4.08134">
        <ele>786</ele>
        <time>2021-01-19T14:10:18Z</time>
      </trkpt>
      <trkpt lat="45.40201" lon="4.08093">
        <ele>788</ele>
        <time>2021-01-19T14:10:41Z</time>
      </trkpt>
      <trkpt lat="45.40192" lon="4.08066">
        <ele>787</ele>
        <time>2021-01-19T14:10:58Z</time>
      </trkpt>
      <trkpt lat="45.40158" lon="4.08032">
        <ele>785</ele>
        <time>2021-01-19T14:11:31Z</time>
      </trkpt>
      <trkpt lat="45.4013" lon="4.0802">
        <ele>783</ele>
        <time>2021-01-19T14:11:54Z</time>
      </trkpt>
      <trkpt lat="45.40107" lon="4.08005">
        <ele>782</ele>
        <time>2021-01-19T14:12:15Z</time>
      </trkpt>
      <trkpt lat="45.40088" lon="4.07991">
        <ele>781</ele>
        <time>2021-01-19T14:12:32Z</time>
      </trkpt>
      <trkpt lat="45.40063" lon="4.07968">
        <ele>779</ele>
        <time>2021-01-19T14:12:55Z</time>
      </trkpt>
      <trkpt lat="45.40044" lon="4.07944">
        <ele>777</ele>
        <time>2021-01-19T14:13:16Z</time>
      </trkpt>
      <trkpt lat="45.40036" lon="4.07924">
        <ele>776</ele>
        <time>2021-01-19T14:13:29Z</time>
      </trkpt>
      <trkpt lat="45.39992" lon="4.07881">
        <ele>772</ele>
        <time>2021-01-19T14:14:11Z</time>
      </trkpt>
      <trkpt lat="45.39948" lon="4.07804">
        <ele>772</ele>
        <time>2021-01-19T14:15:07Z</time>
      </trkpt>
      <trkpt lat="45.39926" lon="4.0779">
        <ele>772</ele>
        <time>2021-01-19T14:15:27Z</time>
      </trkpt>
      <trkpt lat="45.39897" lon="4.07777">
        <ele>773</ele>
        <time>2021-01-19T14:15:51Z</time>
      </trkpt>
      <trkpt lat="45.39856" lon="4.0774">
        <ele>776</ele>
        <time>2021-01-19T14:16:30Z</time>
      </trkpt>
      <trkpt lat="45.3985" lon="4.07727">
        <ele>777</ele>
        <time>2021-01-19T14:16:39Z</time>
      </trkpt>
      <trkpt lat="45.39802" lon="4.07697">
        <ele>778</ele>
        <time>2021-01-19T14:17:20Z</time>
      </trkpt>
      <trkpt lat="45.39783" lon="4.0767">
        <ele>779</ele>
        <time>2021-01-19T14:17:42Z</time>
      </trkpt>
      <trkpt lat="45.39755" lon="4.07639">
        <ele>780</ele>
        <time>2021-01-19T14:18:10Z</time>
      </trkpt>
      <trkpt lat="45.39707" lon="4.07596">
        <ele>781</ele>
        <time>2021-01-19T14:18:56Z</time>
      </trkpt>
      <trkpt lat="45.39689" lon="4.07594">
        <ele>780</ele>
        <time>2021-01-19T14:19:10Z</time>
      </trkpt>
      <trkpt lat="45.3967" lon="4.076">
        <ele>778</ele>
        <time>2021-01-19T14:19:26Z</time>
      </trkpt>
      <trkpt lat="45.39654" lon="4.07619">
        <ele>779</ele>
        <time>2021-01-19T14:19:43Z</time>
      </trkpt>
      <trkpt lat="45.39649" lon="4.07638">
        <ele>779</ele>
        <time>2021-01-19T14:19:54Z</time>
      </trkpt>
      <trkpt lat="45.39541" lon="4.07673">
        <ele>796</ele>
        <time>2021-01-19T14:21:23Z</time>
      </trkpt>
      <trkpt lat="45.39484" lon="4.07659">
        <ele>805</ele>
        <time>2021-01-19T14:22:09Z</time>
      </trkpt>
      <trkpt lat="45.39388" lon="4.07659">
        <ele>814</ele>
        <time>2021-01-19T14:23:26Z</time>
      </trkpt>
      <trkpt lat="45.39379" lon="4.0761">
        <ele>816</ele>
        <time>2021-01-19T14:23:54Z</time>
      </trkpt>
      <trkpt lat="45.39364" lon="4.07593">
        <ele>817</ele>
        <time>2021-01-19T14:24:10Z</time>
      </trkpt>
      <trkpt lat="45.39287" lon="4.07462">
        <ele>828</ele>
        <time>2021-01-19T14:25:46Z</time>
      </trkpt>
      <trkpt lat="45.39278" lon="4.07413">
        <ele>830</ele>
        <time>2021-01-19T14:26:14Z</time>
      </trkpt>
      <trkpt lat="45.39258" lon="4.07356">
        <ele>831</ele>
        <time>2021-01-19T14:26:50Z</time>
      </trkpt>
      <trkpt lat="45.39218" lon="4.07286">
        <ele>843</ele>
        <time>2021-01-19T14:27:41Z</time>
      </trkpt>
      <trkpt lat="45.39213" lon="4.07256">
        <ele>847</ele>
        <time>2021-01-19T14:27:58Z</time>
      </trkpt>
      <trkpt lat="45.39222" lon="4.0724">
        <ele>848</ele>
        <time>2021-01-19T14:28:10Z</time>
      </trkpt>
      <trkpt lat="45.39244" lon="4.07223">
        <ele>845</ele>
        <time>2021-01-19T14:28:30Z</time>
      </trkpt>
      <trkpt lat="45.39255" lon="4.072">
        <ele>848</ele>
        <time>2021-01-19T14:28:45Z</time>
      </trkpt>
      <trkpt lat="45.39272" lon="4.07181">
        <ele>848</ele>
        <time>2021-01-19T14:29:03Z</time>
      </trkpt>
      <trkpt lat="45.39269" lon="4.07126">
        <ele>856</ele>
        <time>2021-01-19T14:29:34Z</time>
      </trkpt>
      <trkpt lat="45.39245" lon="4.06873">
        <ele>876</ele>
        <time>2021-01-19T14:31:57Z</time>
      </trkpt>
      <trkpt lat="45.39239" lon="4.06751">
        <ele>880</ele>
        <time>2021-01-19T14:33:06Z</time>
      </trkpt>
      <trkpt lat="45.39233" lon="4.06716">
        <ele>881</ele>
        <time>2021-01-19T14:33:26Z</time>
      </trkpt>
      <trkpt lat="45.39226" lon="4.06692">
        <ele>882</ele>
        <time>2021-01-19T14:33:41Z</time>
      </trkpt>
      <trkpt lat="45.39205" lon="4.06672">
        <ele>884</ele>
        <time>2021-01-19T14:34:01Z</time>
      </trkpt>
      <trkpt lat="45.39185" lon="4.06664">
        <ele>885</ele>
        <time>2021-01-19T14:34:18Z</time>
      </trkpt>
      <trkpt lat="45.39159" lon="4.06663">
        <ele>889</ele>
        <time>2021-01-19T14:34:38Z</time>
      </trkpt>
      <trkpt lat="45.39135" lon="4.06665">
        <ele>893</ele>
        <time>2021-01-19T14:34:58Z</time>
      </trkpt>
      <trkpt lat="45.39112" lon="4.06655">
        <ele>898</ele>
        <time>2021-01-19T14:35:17Z</time>
      </trkpt>
      <trkpt lat="45.39065" lon="4.06643">
        <ele>907</ele>
        <time>2021-01-19T14:35:55Z</time>
      </trkpt>
      <trkpt lat="45.39006" lon="4.06649">
        <ele>917</ele>
        <time>2021-01-19T14:36:43Z</time>
      </trkpt>
      <trkpt lat="45.38997" lon="4.06638">
        <ele>919</ele>
        <time>2021-01-19T14:36:52Z</time>
      </trkpt>
      <trkpt lat="45.38952" lon="4.06597">
        <ele>926</ele>
        <time>2021-01-19T14:37:35Z</time>
      </trkpt>
      <trkpt lat="45.38915" lon="4.06574">
        <ele>932</ele>
        <time>2021-01-19T14:38:07Z</time>
      </trkpt>
      <trkpt lat="45.38881" lon="4.06538">
        <ele>937</ele>
        <time>2021-01-19T14:38:41Z</time>
      </trkpt>
      <trkpt lat="45.38869" lon="4.065">
        <ele>937</ele>
        <time>2021-01-19T14:39:04Z</time>
      </trkpt>
      <trkpt lat="45.38884" lon="4.06361">
        <ele>942</ele>
        <time>2021-01-19T14:40:24Z</time>
      </trkpt>
      <trkpt lat="45.38933" lon="4.06289">
        <ele>940</ele>
        <time>2021-01-19T14:41:20Z</time>
      </trkpt>
      <trkpt lat="45.38946" lon="4.06253">
        <ele>940</ele>
        <time>2021-01-19T14:41:43Z</time>
      </trkpt>
      <trkpt lat="45.38955" lon="4.062">
        <ele>940</ele>
        <time>2021-01-19T14:42:13Z</time>
      </trkpt>
      <trkpt lat="45.3897" lon="4.06156">
        <ele>939</ele>
        <time>2021-01-19T14:42:41Z</time>
      </trkpt>
      <trkpt lat="45.39026" lon="4.06063">
        <ele>936</ele>
        <time>2021-01-19T14:43:50Z</time>
      </trkpt>
      <trkpt lat="45.39046" lon="4.06018">
        <ele>935</ele>
        <time>2021-01-19T14:44:20Z</time>
      </trkpt>
      <trkpt lat="45.39055" lon="4.05979">
        <ele>933</ele>
        <time>2021-01-19T14:44:43Z</time>
      </trkpt>
      <trkpt lat="45.39071" lon="4.05963">
        <ele>931</ele>
        <time>2021-01-19T14:44:58Z</time>
      </trkpt>
      <trkpt lat="45.39104" lon="4.05919">
        <ele>925</ele>
        <time>2021-01-19T14:45:35Z</time>
      </trkpt>
      <trkpt lat="45.39167" lon="4.05919">
        <ele>920</ele>
        <time>2021-01-19T14:46:25Z</time>
      </trkpt>
      <trkpt lat="45.39191" lon="4.05898">
        <ele>921</ele>
        <time>2021-01-19T14:46:48Z</time>
      </trkpt>
      <trkpt lat="45.39214" lon="4.05869">
        <ele>925</ele>
        <time>2021-01-19T14:47:12Z</time>
      </trkpt>
      <trkpt lat="45.39284" lon="4.05902">
        <ele>923</ele>
        <time>2021-01-19T14:48:11Z</time>
      </trkpt>
      <trkpt lat="45.39326" lon="4.05931">
        <ele>923</ele>
        <time>2021-01-19T14:48:49Z</time>
      </trkpt>
      <trkpt lat="45.39344" lon="4.05948">
        <ele>923</ele>
        <time>2021-01-19T14:49:06Z</time>
      </trkpt>
      <trkpt lat="45.39364" lon="4.05989">
        <ele>920</ele>
        <time>2021-01-19T14:49:34Z</time>
      </trkpt>
      <trkpt lat="45.39392" lon="4.05981">
        <ele>925</ele>
        <time>2021-01-19T14:49:57Z</time>
      </trkpt>
      <trkpt lat="45.39404" lon="4.05966">
        <ele>927</ele>
        <time>2021-01-19T14:50:10Z</time>
      </trkpt>
      <trkpt lat="45.39414" lon="4.05948">
        <ele>930</ele>
        <time>2021-01-19T14:50:23Z</time>
      </trkpt>
      <trkpt lat="45.3942" lon="4.05929">
        <ele>932</ele>
        <time>2021-01-19T14:50:34Z</time>
      </trkpt>
      <trkpt lat="45.39421" lon="4.05878">
        <ele>937</ele>
        <time>2021-01-19T14:51:03Z</time>
      </trkpt>
      <trkpt lat="45.39425" lon="4.05844">
        <ele>940</ele>
        <time>2021-01-19T14:51:22Z</time>
      </trkpt>
      <trkpt lat="45.39407" lon="4.05827">
        <ele>943</ele>
        <time>2021-01-19T14:51:40Z</time>
      </trkpt>
      <trkpt lat="45.39386" lon="4.0579">
        <ele>948</ele>
        <time>2021-01-19T14:52:06Z</time>
      </trkpt>
      <trkpt lat="45.39368" lon="4.05751">
        <ele>955</ele>
        <time>2021-01-19T14:52:33Z</time>
      </trkpt>
      <trkpt lat="45.39337" lon="4.05665">
        <ele>961</ele>
        <time>2021-01-19T14:53:27Z</time>
      </trkpt>
      <trkpt lat="45.39318" lon="4.05636">
        <ele>962</ele>
        <time>2021-01-19T14:53:49Z</time>
      </trkpt>
      <trkpt lat="45.39306" lon="4.05623">
        <ele>962</ele>
        <time>2021-01-19T14:54:01Z</time>
      </trkpt>
      <trkpt lat="45.39278" lon="4.05579">
        <ele>963</ele>
        <time>2021-01-19T14:54:35Z</time>
      </trkpt>
      <trkpt lat="45.39269" lon="4.05551">
        <ele>963</ele>
        <time>2021-01-19T14:54:52Z</time>
      </trkpt>
      <trkpt lat="45.39267" lon="4.05523">
        <ele>963</ele>
        <time>2021-01-19T14:55:08Z</time>
      </trkpt>
      <trkpt lat="45.39261" lon="4.05505">
        <ele>963</ele>
        <time>2021-01-19T14:55:19Z</time>
      </trkpt>
      <trkpt lat="45.39261" lon="4.05403">
        <ele>961</ele>
        <time>2021-01-19T14:56:16Z</time>
      </trkpt>
      <trkpt lat="45.39264" lon="4.0537">
        <ele>961</ele>
        <time>2021-01-19T14:56:35Z</time>
      </trkpt>
      <trkpt lat="45.39271" lon="4.05313">
        <ele>960</ele>
        <time>2021-01-19T14:57:08Z</time>
      </trkpt>
      <trkpt lat="45.39282" lon="4.05253">
        <ele>957</ele>
        <time>2021-01-19T14:57:43Z</time>
      </trkpt>
      <trkpt lat="45.39307" lon="4.05185">
        <ele>956</ele>
        <time>2021-01-19T14:58:26Z</time>
      </trkpt>
      <trkpt lat="45.39243" lon="4.05138">
        <ele>953</ele>
        <time>2021-01-19T14:59:23Z</time>
      </trkpt>
      <trkpt lat="45.39236" lon="4.05113">
        <ele>953</ele>
        <time>2021-01-19T14:59:38Z</time>
      </trkpt>
      <trkpt lat="45.39201" lon="4.05054">
        <ele>954</ele>
        <time>2021-01-19T15:00:22Z</time>
      </trkpt>
      <trkpt lat="45.39186" lon="4.05041">
        <ele>954</ele>
        <time>2021-01-19T15:00:36Z</time>
      </trkpt>
      <trkpt lat="45.39147" lon="4.04999">
        <ele>955</ele>
        <time>2021-01-19T15:01:15Z</time>
      </trkpt>
      <trkpt lat="45.39077" lon="4.04948">
        <ele>955</ele>
        <time>2021-01-19T15:02:18Z</time>
      </trkpt>
      <trkpt lat="45.39002" lon="4.04911">
        <ele>951</ele>
        <time>2021-01-19T15:03:22Z</time>
      </trkpt>
      <trkpt lat="45.38976" lon="4.04894">
        <ele>948</ele>
        <time>2021-01-19T15:03:45Z</time>
      </trkpt>
      <trkpt lat="45.38948" lon="4.04902">
        <ele>947</ele>
        <time>2021-01-19T15:04:07Z</time>
      </trkpt>
      <trkpt lat="45.38899" lon="4.04907">
        <ele>945</ele>
        <time>2021-01-19T15:04:47Z</time>
      </trkpt>
      <trkpt lat="45.38883" lon="4.04914">
        <ele>944</ele>
        <time>2021-01-19T15:05:00Z</time>
      </trkpt>
      <trkpt lat="45.38858" lon="4.04917">
        <ele>941</ele>
        <time>2021-01-19T15:05:20Z</time>
      </trkpt>
      <trkpt lat="45.3885" lon="4.04913">
        <ele>940</ele>
        <time>2021-01-19T15:05:27Z</time>
      </trkpt>
      <trkpt lat="45.38838" lon="4.04888">
        <ele>937</ele>
        <time>2021-01-19T15:05:44Z</time>
      </trkpt>
      <trkpt lat="45.3882" lon="4.04873">
        <ele>935</ele>
        <time>2021-01-19T15:06:01Z</time>
      </trkpt>
      <trkpt lat="45.38808" lon="4.0485">
        <ele>934</ele>
        <time>2021-01-19T15:06:17Z</time>
      </trkpt>
      <trkpt lat="45.38787" lon="4.04832">
        <ele>933</ele>
        <time>2021-01-19T15:06:36Z</time>
      </trkpt>
      <trkpt lat="45.3876" lon="4.04828">
        <ele>933</ele>
        <time>2021-01-19T15:06:58Z</time>
      </trkpt>
      <trkpt lat="45.38734" lon="4.04828">
        <ele>934</ele>
        <time>2021-01-19T15:07:19Z</time>
      </trkpt>
      <trkpt lat="45.38698" lon="4.0465">
        <ele>937</ele>
        <time>2021-01-19T15:09:03Z</time>
      </trkpt>
      <trkpt lat="45.38695" lon="4.04461">
        <ele>937</ele>
        <time>2021-01-19T15:10:50Z</time>
      </trkpt>
      <trkpt lat="45.38706" lon="4.0444">
        <ele>937</ele>
        <time>2021-01-19T15:11:04Z</time>
      </trkpt>
      <trkpt lat="45.38707" lon="4.04381">
        <ele>938</ele>
        <time>2021-01-19T15:11:37Z</time>
      </trkpt>
      <trkpt lat="45.38707" lon="4.04348">
        <ele>939</ele>
        <time>2021-01-19T15:11:56Z</time>
      </trkpt>
      <trkpt lat="45.38697" lon="4.04264">
        <ele>942</ele>
        <time>2021-01-19T15:12:44Z</time>
      </trkpt>
      <trkpt lat="45.387" lon="4.04176">
        <ele>947</ele>
        <time>2021-01-19T15:13:33Z</time>
      </trkpt>
      <trkpt lat="45.38699" lon="4.04136">
        <ele>949</ele>
        <time>2021-01-19T15:13:56Z</time>
      </trkpt>
      <trkpt lat="45.38701" lon="4.04072">
        <ele>951</ele>
        <time>2021-01-19T15:14:32Z</time>
      </trkpt>
      <trkpt lat="45.3871" lon="4.03999">
        <ele>953</ele>
        <time>2021-01-19T15:15:14Z</time>
      </trkpt>
      <trkpt lat="45.38702" lon="4.03948">
        <ele>953</ele>
        <time>2021-01-19T15:15:43Z</time>
      </trkpt>
      <trkpt lat="45.38689" lon="4.03925">
        <ele>954</ele>
        <time>2021-01-19T15:16:00Z</time>
      </trkpt>
      <trkpt lat="45.38682" lon="4.03905">
        <ele>954</ele>
        <time>2021-01-19T15:16:12Z</time>
      </trkpt>
      <trkpt lat="45.38667" lon="4.03875">
        <ele>955</ele>
        <time>2021-01-19T15:16:33Z</time>
      </trkpt>
      <trkpt lat="45.38662" lon="4.03848">
        <ele>956</ele>
        <time>2021-01-19T15:16:49Z</time>
      </trkpt>
      <trkpt lat="45.38667" lon="4.03816">
        <ele>956</ele>
        <time>2021-01-19T15:17:07Z</time>
      </trkpt>
      <trkpt lat="45.38688" lon="4.0377">
        <ele>955</ele>
        <time>2021-01-19T15:17:38Z</time>
      </trkpt>
      <trkpt lat="45.38698" lon="4.03708">
        <ele>954</ele>
        <time>2021-01-19T15:18:14Z</time>
      </trkpt>
      <trkpt lat="45.3869" lon="4.03697">
        <ele>954</ele>
        <time>2021-01-19T15:18:23Z</time>
      </trkpt>
      <trkpt lat="45.38667" lon="4.03686">
        <ele>954</ele>
        <time>2021-01-19T15:18:42Z</time>
      </trkpt>
      <trkpt lat="45.38542" lon="4.03661">
        <ele>959</ele>
        <time>2021-01-19T15:20:23Z</time>
      </trkpt>
      <trkpt lat="45.38514" lon="4.03663">
        <ele>960</ele>
        <time>2021-01-19T15:20:46Z</time>
      </trkpt>
      <trkpt lat="45.38429" lon="4.03695">
        <ele>961</ele>
        <time>2021-01-19T15:21:56Z</time>
      </trkpt>
      <trkpt lat="45.3838" lon="4.03716">
        <ele>960</ele>
        <time>2021-01-19T15:22:37Z</time>
      </trkpt>
      <trkpt lat="45.38312" lon="4.0374">
        <ele>958</ele>
        <time>2021-01-19T15:23:33Z</time>
      </trkpt>
      <trkpt lat="45.38258" lon="4.03755">
        <ele>957</ele>
        <time>2021-01-19T15:24:17Z</time>
      </trkpt>
      <trkpt lat="45.38157" lon="4.03803">
        <ele>951</ele>
        <time>2021-01-19T15:25:42Z</time>
      </trkpt>
      <trkpt lat="45.38089" lon="4.03821">
        <ele>947</ele>
        <time>2021-01-19T15:26:38Z</time>
      </trkpt>
      <trkpt lat="45.38056" lon="4.03814">
        <ele>946</ele>
        <time>2021-01-19T15:27:04Z</time>
      </trkpt>
      <trkpt lat="45.38007" lon="4.03808">
        <ele>944</ele>
        <time>2021-01-19T15:27:44Z</time>
      </trkpt>
      <trkpt lat="45.37822" lon="4.03766">
        <ele>945</ele>
        <time>2021-01-19T15:30:14Z</time>
      </trkpt>
      <trkpt lat="45.37778" lon="4.0375">
        <ele>945</ele>
        <time>2021-01-19T15:30:50Z</time>
      </trkpt>
      <trkpt lat="45.37758" lon="4.0373">
        <ele>945</ele>
        <time>2021-01-19T15:31:10Z</time>
      </trkpt>
      <trkpt lat="45.37724" lon="4.03706">
        <ele>945</ele>
        <time>2021-01-19T15:31:40Z</time>
      </trkpt>
      <trkpt lat="45.3767" lon="4.03677">
        <ele>943</ele>
        <time>2021-01-19T15:32:26Z</time>
      </trkpt>
      <trkpt lat="45.37634" lon="4.03667">
        <ele>941</ele>
        <time>2021-01-19T15:32:56Z</time>
      </trkpt>
      <trkpt lat="45.37604" lon="4.03653">
        <ele>940</ele>
        <time>2021-01-19T15:33:21Z</time>
      </trkpt>
      <trkpt lat="45.3758" lon="4.03645">
        <ele>938</ele>
        <time>2021-01-19T15:33:41Z</time>
      </trkpt>
      <trkpt lat="45.37564" lon="4.03619">
        <ele>936</ele>
        <time>2021-01-19T15:34:00Z</time>
      </trkpt>
      <trkpt lat="45.37543" lon="4.03602">
        <ele>935</ele>
        <time>2021-01-19T15:34:19Z</time>
      </trkpt>
      <trkpt lat="45.37447" lon="4.03551">
        <ele>932</ele>
        <time>2021-01-19T15:35:41Z</time>
      </trkpt>
      <trkpt lat="45.37337" lon="4.03446">
        <ele>926</ele>
        <time>2021-01-19T15:37:28Z</time>
      </trkpt>
      <trkpt lat="45.37308" lon="4.0343">
        <ele>925</ele>
        <time>2021-01-19T15:37:52Z</time>
      </trkpt>
      <trkpt lat="45.37268" lon="4.03421">
        <ele>924</ele>
        <time>2021-01-19T15:38:25Z</time>
      </trkpt>
      <trkpt lat="45.37227" lon="4.03416">
        <ele>923</ele>
        <time>2021-01-19T15:38:58Z</time>
      </trkpt>
      <trkpt lat="45.3718" lon="4.03394">
        <ele>923</ele>
        <time>2021-01-19T15:39:37Z</time>
      </trkpt>
      <trkpt lat="45.37166" lon="4.03384">
        <ele>922</ele>
        <time>2021-01-19T15:39:50Z</time>
      </trkpt>
      <trkpt lat="45.37129" lon="4.03348">
        <ele>922</ele>
        <time>2021-01-19T15:40:26Z</time>
      </trkpt>
      <trkpt lat="45.37083" lon="4.03317">
        <ele>922</ele>
        <time>2021-01-19T15:41:07Z</time>
      </trkpt>
      <trkpt lat="45.37109" lon="4.03182">
        <ele>922</ele>
        <time>2021-01-19T15:42:25Z</time>
      </trkpt>
      <trkpt lat="45.37138" lon="4.03153">
        <ele>920</ele>
        <time>2021-01-19T15:42:54Z</time>
      </trkpt>
      <trkpt lat="45.37165" lon="4.03">
        <ele>919</ele>
        <time>2021-01-19T15:44:22Z</time>
      </trkpt>
      <trkpt lat="45.37172" lon="4.02973">
        <ele>918</ele>
        <time>2021-01-19T15:44:39Z</time>
      </trkpt>
      <trkpt lat="45.37167" lon="4.0293">
        <ele>917</ele>
        <time>2021-01-19T15:45:03Z</time>
      </trkpt>
      <trkpt lat="45.37193" lon="4.02755">
        <ele>913</ele>
        <time>2021-01-19T15:46:44Z</time>
      </trkpt>
      <trkpt lat="45.37202" lon="4.02718">
        <ele>913</ele>
        <time>2021-01-19T15:47:06Z</time>
      </trkpt>
      <trkpt lat="45.37257" lon="4.02641">
        <ele>910</ele>
        <time>2021-01-19T15:48:08Z</time>
      </trkpt>
      <trkpt lat="45.37291" lon="4.02605">
        <ele>910</ele>
        <time>2021-01-19T15:48:41Z</time>
      </trkpt>
      <trkpt lat="45.37368" lon="4.02478">
        <ele>913</ele>
        <time>2021-01-19T15:50:16Z</time>
      </trkpt>
      <trkpt lat="45.37367" lon="4.02455">
        <ele>914</ele>
        <time>2021-01-19T15:50:29Z</time>
      </trkpt>
      <trkpt lat="45.37379" lon="4.02414">
        <ele>916</ele>
        <time>2021-01-19T15:50:54Z</time>
      </trkpt>
      <trkpt lat="45.37392" lon="4.02345">
        <ele>922</ele>
        <time>2021-01-19T15:51:34Z</time>
      </trkpt>
      <trkpt lat="45.3739" lon="4.02321">
        <ele>923</ele>
        <time>2021-01-19T15:51:48Z</time>
      </trkpt>
      <trkpt lat="45.37386" lon="4.02302">
        <ele>925</ele>
        <time>2021-01-19T15:51:59Z</time>
      </trkpt>
      <trkpt lat="45.37375" lon="4.02273">
        <ele>926</ele>
        <time>2021-01-19T15:52:17Z</time>
      </trkpt>
      <trkpt lat="45.37359" lon="4.02254">
        <ele>927</ele>
        <time>2021-01-19T15:52:34Z</time>
      </trkpt>
      <trkpt lat="45.37354" lon="4.02244">
        <ele>928</ele>
        <time>2021-01-19T15:52:41Z</time>
      </trkpt>
      <trkpt lat="45.3734" lon="4.02237">
        <ele>927</ele>
        <time>2021-01-19T15:52:53Z</time>
      </trkpt>
      <trkpt lat="45.37342" lon="4.02214">
        <ele>927</ele>
        <time>2021-01-19T15:53:06Z</time>
      </trkpt>
      <trkpt lat="45.37359" lon="4.02175">
        <ele>928</ele>
        <time>2021-01-19T15:53:32Z</time>
      </trkpt>
      <trkpt lat="45.37402" lon="4.02036">
        <ele>933</ele>
        <time>2021-01-19T15:54:57Z</time>
      </trkpt>
      <trkpt lat="45.37416" lon="4.01961">
        <ele>937</ele>
        <time>2021-01-19T15:55:41Z</time>
      </trkpt>
      <trkpt lat="45.37433" lon="4.01911">
        <ele>939</ele>
        <time>2021-01-19T15:56:12Z</time>
      </trkpt>
      <trkpt lat="45.37478" lon="4.01794">
        <ele>945</ele>
        <time>2021-01-19T15:57:27Z</time>
      </trkpt>
      <trkpt lat="45.37502" lon="4.01749">
        <ele>946</ele>
        <time>2021-01-19T15:57:59Z</time>
      </trkpt>
      <trkpt lat="45.37497" lon="4.01724">
        <ele>947</ele>
        <time>2021-01-19T15:58:13Z</time>
      </trkpt>
      <trkpt lat="45.37497" lon="4.01664">
        <ele>947</ele>
        <time>2021-01-19T15:58:47Z</time>
      </trkpt>
      <trkpt lat="45.3748" lon="4.01608">
        <ele>947</ele>
        <time>2021-01-19T15:59:21Z</time>
      </trkpt>
      <trkpt lat="45.37507" lon="4.01621">
        <ele>943</ele>
        <time>2021-01-19T15:59:44Z</time>
      </trkpt>
      <trkpt lat="45.37532" lon="4.01623">
        <ele>940</ele>
        <time>2021-01-19T16:00:04Z</time>
      </trkpt>
      <trkpt lat="45.3756" lon="4.01621">
        <ele>936</ele>
        <time>2021-01-19T16:00:27Z</time>
      </trkpt>
      <trkpt lat="45.37599" lon="4.01611">
        <ele>930</ele>
        <time>2021-01-19T16:00:58Z</time>
      </trkpt>
      <trkpt lat="45.37583" lon="4.01594">
        <ele>930</ele>
        <time>2021-01-19T16:01:14Z</time>
      </trkpt>
      <trkpt lat="45.37562" lon="4.01489">
        <ele>922</ele>
        <time>2021-01-19T16:02:16Z</time>
      </trkpt>
      <trkpt lat="45.37552" lon="4.01462">
        <ele>919</ele>
        <time>2021-01-19T16:02:33Z</time>
      </trkpt>
      <trkpt lat="45.37539" lon="4.01441">
        <ele>916</ele>
        <time>2021-01-19T16:02:49Z</time>
      </trkpt>
      <trkpt lat="45.37509" lon="4.01408">
        <ele>910</ele>
        <time>2021-01-19T16:03:19Z</time>
      </trkpt>
      <trkpt lat="45.37464" lon="4.01368">
        <ele>907</ele>
        <time>2021-01-19T16:04:02Z</time>
      </trkpt>
      <trkpt lat="45.3745" lon="4.01343">
        <ele>904</ele>
        <time>2021-01-19T16:04:20Z</time>
      </trkpt>
      <trkpt lat="45.3742" lon="4.01283">
        <ele>901</ele>
        <time>2021-01-19T16:05:01Z</time>
      </trkpt>
      <trkpt lat="45.37398" lon="4.01227">
        <ele>899</ele>
        <time>2021-01-19T16:05:37Z</time>
      </trkpt>
      <trkpt lat="45.37395" lon="4.01208">
        <ele>899</ele>
        <time>2021-01-19T16:05:48Z</time>
      </trkpt>
      <trkpt lat="45.37396" lon="4.01184">
        <ele>899</ele>
        <time>2021-01-19T16:06:02Z</time>
      </trkpt>
      <trkpt lat="45.37357" lon="4.01102">
        <ele>901</ele>
        <time>2021-01-19T16:06:57Z</time>
      </trkpt>
      <trkpt lat="45.3729" lon="4.00986">
        <ele>894</ele>
        <time>2021-01-19T16:08:22Z</time>
      </trkpt>
      <trkpt lat="45.37267" lon="4.00956">
        <ele>888</ele>
        <time>2021-01-19T16:08:47Z</time>
      </trkpt>
      <trkpt lat="45.37258" lon="4.00918">
        <ele>880</ele>
        <time>2021-01-19T16:09:09Z</time>
      </trkpt>
      <trkpt lat="45.37245" lon="4.00905">
        <ele>878</ele>
        <time>2021-01-19T16:09:22Z</time>
      </trkpt>
      <trkpt lat="45.37211" lon="4.00882">
        <ele>873</ele>
        <time>2021-01-19T16:09:52Z</time>
      </trkpt>
      <trkpt lat="45.37172" lon="4.00862">
        <ele>868</ele>
        <time>2021-01-19T16:10:25Z</time>
      </trkpt>
      <trkpt lat="45.37153" lon="4.0086">
        <ele>867</ele>
        <time>2021-01-19T16:10:41Z</time>
      </trkpt>
      <trkpt lat="45.37133" lon="4.00845">
        <ele>863</ele>
        <time>2021-01-19T16:10:59Z</time>
      </trkpt>
      <trkpt lat="45.37131" lon="4.00826">
        <ele>861</ele>
        <time>2021-01-19T16:11:09Z</time>
      </trkpt>
      <trkpt lat="45.37133" lon="4.00796">
        <ele>861</ele>
        <time>2021-01-19T16:11:26Z</time>
      </trkpt>
      <trkpt lat="45.3712" lon="4.00787">
        <ele>861</ele>
        <time>2021-01-19T16:11:38Z</time>
      </trkpt>
      <trkpt lat="45.3711" lon="4.00772">
        <ele>862</ele>
        <time>2021-01-19T16:11:50Z</time>
      </trkpt>
      <trkpt lat="45.37101" lon="4.00751">
        <ele>863</ele>
        <time>2021-01-19T16:12:03Z</time>
      </trkpt>
      <trkpt lat="45.37086" lon="4.00728">
        <ele>866</ele>
        <time>2021-01-19T16:12:21Z</time>
      </trkpt>
      <trkpt lat="45.3707" lon="4.00713">
        <ele>867</ele>
        <time>2021-01-19T16:12:36Z</time>
      </trkpt>
      <trkpt lat="45.37057" lon="4.00712">
        <ele>867</ele>
        <time>2021-01-19T16:12:47Z</time>
      </trkpt>
      <trkpt lat="45.37009" lon="4.00676">
        <ele>867</ele>
        <time>2021-01-19T16:13:30Z</time>
      </trkpt>
      <trkpt lat="45.36992" lon="4.00652">
        <ele>867</ele>
        <time>2021-01-19T16:13:49Z</time>
      </trkpt>
      <trkpt lat="45.3697" lon="4.0061">
        <ele>865</ele>
        <time>2021-01-19T16:14:19Z</time>
      </trkpt>
      <trkpt lat="45.3696" lon="4.00589">
        <ele>865</ele>
        <time>2021-01-19T16:14:33Z</time>
      </trkpt>
      <trkpt lat="45.36957" lon="4.00569">
        <ele>863</ele>
        <time>2021-01-19T16:14:45Z</time>
      </trkpt>
      <trkpt lat="45.36986" lon="4.00533">
        <ele>863</ele>
        <time>2021-01-19T16:15:16Z</time>
      </trkpt>
      <trkpt lat="45.37003" lon="4.0047">
        <ele>858</ele>
        <time>2021-01-19T16:15:53Z</time>
      </trkpt>
      <trkpt lat="45.37003" lon="4.00456">
        <ele>857</ele>
        <time>2021-01-19T16:16:01Z</time>
      </trkpt>
      <trkpt lat="45.36999" lon="4.00434">
        <ele>855</ele>
        <time>2021-01-19T16:16:14Z</time>
      </trkpt>
      <trkpt lat="45.37003" lon="4.00413">
        <ele>854</ele>
        <time>2021-01-19T16:16:26Z</time>
      </trkpt>
      <trkpt lat="45.36988" lon="4.00425">
        <ele>853</ele>
        <time>2021-01-19T16:16:40Z</time>
      </trkpt>
      <trkpt lat="45.36972" lon="4.00453">
        <ele>852</ele>
        <time>2021-01-19T16:17:00Z</time>
      </trkpt>
      <trkpt lat="45.36951" lon="4.00477">
        <ele>851</ele>
        <time>2021-01-19T16:17:22Z</time>
      </trkpt>
      <trkpt lat="45.36913" lon="4.00495">
        <ele>848</ele>
        <time>2021-01-19T16:17:54Z</time>
      </trkpt>
      <trkpt lat="45.36865" lon="4.00481">
        <ele>843</ele>
        <time>2021-01-19T16:18:33Z</time>
      </trkpt>
      <trkpt lat="45.36809" lon="4.00484">
        <ele>842</ele>
        <time>2021-01-19T16:19:18Z</time>
      </trkpt>
      <trkpt lat="45.36781" lon="4.00494">
        <ele>845</ele>
        <time>2021-01-19T16:19:41Z</time>
      </trkpt>
      <trkpt lat="45.3673" lon="4.00495">
        <ele>849</ele>
        <time>2021-01-19T16:20:22Z</time>
      </trkpt>
      <trkpt lat="45.36697" lon="4.00491">
        <ele>853</ele>
        <time>2021-01-19T16:20:49Z</time>
      </trkpt>
      <trkpt lat="45.36679" lon="4.00499">
        <ele>858</ele>
        <time>2021-01-19T16:21:04Z</time>
      </trkpt>
      <trkpt lat="45.36662" lon="4.00487">
        <ele>858</ele>
        <time>2021-01-19T16:21:19Z</time>
      </trkpt>
      <trkpt lat="45.3663" lon="4.0047">
        <ele>857</ele>
        <time>2021-01-19T16:21:46Z</time>
      </trkpt>
      <trkpt lat="45.36575" lon="4.00509">
        <ele>872</ele>
        <time>2021-01-19T16:22:35Z</time>
      </trkpt>
      <trkpt lat="45.36556" lon="4.00514">
        <ele>874</ele>
        <time>2021-01-19T16:22:51Z</time>
      </trkpt>
      <trkpt lat="45.36512" lon="4.00443">
        <ele>858</ele>
        <time>2021-01-19T16:23:44Z</time>
      </trkpt>
      <trkpt lat="45.36488" lon="4.00421">
        <ele>853</ele>
        <time>2021-01-19T16:24:07Z</time>
      </trkpt>
      <trkpt lat="45.3645" lon="4.00398">
        <ele>849</ele>
        <time>2021-01-19T16:24:40Z</time>
      </trkpt>
      <trkpt lat="45.36421" lon="4.00395">
        <ele>849</ele>
        <time>2021-01-19T16:25:03Z</time>
      </trkpt>
      <trkpt lat="45.36403" lon="4.00386">
        <ele>848</ele>
        <time>2021-01-19T16:25:19Z</time>
      </trkpt>
      <trkpt lat="45.36392" lon="4.00367">
        <ele>844</ele>
        <time>2021-01-19T16:25:33Z</time>
      </trkpt>
      <trkpt lat="45.36388" lon="4.00341">
        <ele>835</ele>
        <time>2021-01-19T16:25:48Z</time>
      </trkpt>
      <trkpt lat="45.36387" lon="4.00292">
        <ele>831</ele>
        <time>2021-01-19T16:26:15Z</time>
      </trkpt>
      <trkpt lat="45.36382" lon="4.00281">
        <ele>831</ele>
        <time>2021-01-19T16:26:22Z</time>
      </trkpt>
      <trkpt lat="45.36363" lon="4.00274">
        <ele>831</ele>
        <time>2021-01-19T16:26:38Z</time>
      </trkpt>
      <trkpt lat="45.36347" lon="4.00265">
        <ele>831</ele>
        <time>2021-01-19T16:26:52Z</time>
      </trkpt>
      <trkpt lat="45.36383" lon="4.00246">
        <ele>831</ele>
        <time>2021-01-19T16:27:23Z</time>
      </trkpt>
      <trkpt lat="45.36428" lon="4.00241">
        <ele>831</ele>
        <time>2021-01-19T16:27:59Z</time>
      </trkpt>
      <trkpt lat="45.36443" lon="4.00224">
        <ele>833</ele>
        <time>2021-01-19T16:28:14Z</time>
      </trkpt>
      <trkpt lat="45.36447" lon="4.00207">
        <ele>835</ele>
        <time>2021-01-19T16:28:24Z</time>
      </trkpt>
      <trkpt lat="45.36426" lon="4.00176">
        <ele>839</ele>
        <time>2021-01-19T16:28:48Z</time>
      </trkpt>
      <trkpt lat="45.36417" lon="4.00119">
        <ele>850</ele>
        <time>2021-01-19T16:29:21Z</time>
      </trkpt>
      <trkpt lat="45.3635" lon="4.00078">
        <ele>858</ele>
        <time>2021-01-19T16:30:20Z</time>
      </trkpt>
      <trkpt lat="45.36301" lon="4.00064">
        <ele>857</ele>
        <time>2021-01-19T16:31:00Z</time>
      </trkpt>
      <trkpt lat="45.36295" lon="4.00048">
        <ele>859</ele>
        <time>2021-01-19T16:31:10Z</time>
      </trkpt>
      <trkpt lat="45.36315" lon="4.00031">
        <ele>862</ele>
        <time>2021-01-19T16:31:29Z</time>
      </trkpt>
      <trkpt lat="45.36374" lon="3.99946">
        <ele>869</ele>
        <time>2021-01-19T16:32:36Z</time>
      </trkpt>
      <trkpt lat="45.36416" lon="3.99937">
        <ele>873</ele>
        <time>2021-01-19T16:33:10Z</time>
      </trkpt>
      <trkpt lat="45.36495" lon="3.99928">
        <ele>880</ele>
        <time>2021-01-19T16:34:13Z</time>
      </trkpt>
      <trkpt lat="45.36547" lon="3.99917">
        <ele>886</ele>
        <time>2021-01-19T16:34:55Z</time>
      </trkpt>
      <trkpt lat="45.36587" lon="3.99912">
        <ele>891</ele>
        <time>2021-01-19T16:35:28Z</time>
      </trkpt>
      <trkpt lat="45.36628" lon="3.99886">
        <ele>898</ele>
        <time>2021-01-19T16:36:03Z</time>
      </trkpt>
      <trkpt lat="45.36642" lon="3.99874">
        <ele>900</ele>
        <time>2021-01-19T16:36:17Z</time>
      </trkpt>
      <trkpt lat="45.36635" lon="3.99855">
        <ele>900</ele>
        <time>2021-01-19T16:36:29Z</time>
      </trkpt>
      <trkpt lat="45.36641" lon="3.99768">
        <ele>905</ele>
        <time>2021-01-19T16:37:18Z</time>
      </trkpt>
      <trkpt lat="45.36654" lon="3.99689">
        <ele>911</ele>
        <time>2021-01-19T16:38:03Z</time>
      </trkpt>
      <trkpt lat="45.36648" lon="3.99682">
        <ele>911</ele>
        <time>2021-01-19T16:38:10Z</time>
      </trkpt>
      <trkpt lat="45.36608" lon="3.99688">
        <ele>910</ele>
        <time>2021-01-19T16:38:42Z</time>
      </trkpt>
      <trkpt lat="45.36589" lon="3.99683">
        <ele>911</ele>
        <time>2021-01-19T16:38:57Z</time>
      </trkpt>
      <trkpt lat="45.36578" lon="3.99676">
        <ele>911</ele>
        <time>2021-01-19T16:39:07Z</time>
      </trkpt>
      <trkpt lat="45.36557" lon="3.99647">
        <ele>912</ele>
        <time>2021-01-19T16:39:30Z</time>
      </trkpt>
      <trkpt lat="45.36546" lon="3.99641">
        <ele>912</ele>
        <time>2021-01-19T16:39:40Z</time>
      </trkpt>
      <trkpt lat="45.36523" lon="3.99601">
        <ele>912</ele>
        <time>2021-01-19T16:40:09Z</time>
      </trkpt>
      <trkpt lat="45.36505" lon="3.99585">
        <ele>912</ele>
        <time>2021-01-19T16:40:26Z</time>
      </trkpt>
      <trkpt lat="45.36479" lon="3.99528">
        <ele>914</ele>
        <time>2021-01-19T16:41:04Z</time>
      </trkpt>
      <trkpt lat="45.36451" lon="3.99496">
        <ele>915</ele>
        <time>2021-01-19T16:41:33Z</time>
      </trkpt>
      <trkpt lat="45.36432" lon="3.99479">
        <ele>914</ele>
        <time>2021-01-19T16:41:51Z</time>
      </trkpt>
      <trkpt lat="45.36419" lon="3.9945">
        <ele>914</ele>
        <time>2021-01-19T16:42:10Z</time>
      </trkpt>
      <trkpt lat="45.36476" lon="3.99401">
        <ele>919</ele>
        <time>2021-01-19T16:43:04Z</time>
      </trkpt>
      <trkpt lat="45.36482" lon="3.99387">
        <ele>920</ele>
        <time>2021-01-19T16:43:13Z</time>
      </trkpt>
      <trkpt lat="45.36461" lon="3.99367">
        <ele>919</ele>
        <time>2021-01-19T16:43:33Z</time>
      </trkpt>
      <trkpt lat="45.36455" lon="3.99355">
        <ele>919</ele>
        <time>2021-01-19T16:43:41Z</time>
      </trkpt>
      <trkpt lat="45.36447" lon="3.99285">
        <ele>920</ele>
        <time>2021-01-19T16:44:21Z</time>
      </trkpt>
      <trkpt lat="45.36439" lon="3.99254">
        <ele>921</ele>
        <time>2021-01-19T16:44:40Z</time>
      </trkpt>
      <trkpt lat="45.36431" lon="3.99208">
        <ele>922</ele>
        <time>2021-01-19T16:45:06Z</time>
      </trkpt>
      <trkpt lat="45.3642" lon="3.99206">
        <ele>922</ele>
        <time>2021-01-19T16:45:15Z</time>
      </trkpt>
      <trkpt lat="45.36446" lon="3.99171">
        <ele>924</ele>
        <time>2021-01-19T16:45:44Z</time>
      </trkpt>
      <trkpt lat="45.36454" lon="3.99152">
        <ele>923</ele>
        <time>2021-01-19T16:45:56Z</time>
      </trkpt>
      <trkpt lat="45.36473" lon="3.99082">
        <ele>920</ele>
        <time>2021-01-19T16:46:39Z</time>
      </trkpt>
      <trkpt lat="45.36482" lon="3.99067">
        <ele>919</ele>
        <time>2021-01-19T16:46:50Z</time>
      </trkpt>
      <trkpt lat="45.36585" lon="3.98928">
        <ele>910</ele>
        <time>2021-01-19T16:48:43Z</time>
      </trkpt>
      <trkpt lat="45.36645" lon="3.98877">
        <ele>908</ele>
        <time>2021-01-19T16:49:39Z</time>
      </trkpt>
      <trkpt lat="45.36695" lon="3.98826">
        <ele>904</ele>
        <time>2021-01-19T16:50:29Z</time>
      </trkpt>
      <trkpt lat="45.3673" lon="3.98797">
        <ele>901</ele>
        <time>2021-01-19T16:51:01Z</time>
      </trkpt>
      <trkpt lat="45.36797" lon="3.98754">
        <ele>897</ele>
        <time>2021-01-19T16:52:00Z</time>
      </trkpt>
      <trkpt lat="45.36893" lon="3.987">
        <ele>897</ele>
        <time>2021-01-19T16:53:23Z</time>
      </trkpt>
      <trkpt lat="45.36934" lon="3.98682">
        <ele>896</ele>
        <time>2021-01-19T16:53:57Z</time>
      </trkpt>
      <trkpt lat="45.36966" lon="3.98676">
        <ele>897</ele>
        <time>2021-01-19T16:54:23Z</time>
      </trkpt>
      <trkpt lat="45.37001" lon="3.98676">
        <ele>899</ele>
        <time>2021-01-19T16:54:51Z</time>
      </trkpt>
      <trkpt lat="45.37032" lon="3.9868">
        <ele>898</ele>
        <time>2021-01-19T16:55:16Z</time>
      </trkpt>
      <trkpt lat="45.37077" lon="3.98724">
        <ele>899</ele>
        <time>2021-01-19T16:55:59Z</time>
      </trkpt>
      <trkpt lat="45.36973" lon="3.98393">
        <ele>897</ele>
        <time>2021-01-19T16:59:23Z</time>
      </trkpt>
      <trkpt lat="45.36857" lon="3.98111">
        <ele>895</ele>
        <time>2021-01-19T17:02:27Z</time>
      </trkpt>
      <trkpt lat="45.3689" lon="3.98076">
        <ele>897</ele>
        <time>2021-01-19T17:03:00Z</time>
      </trkpt>
      <trkpt lat="45.36893" lon="3.97918">
        <ele>902</ele>
        <time>2021-01-19T17:04:29Z</time>
      </trkpt>
      <trkpt lat="45.36907" lon="3.97798">
        <ele>910</ele>
        <time>2021-01-19T17:05:37Z</time>
      </trkpt>
      <trkpt lat="45.36964" lon="3.97563">
        <ele>916</ele>
        <time>2021-01-19T17:07:57Z</time>
      </trkpt>
      <trkpt lat="45.36994" lon="3.97487">
        <ele>918</ele>
        <time>2021-01-19T17:08:46Z</time>
      </trkpt>
      <trkpt lat="45.36976" lon="3.97471">
        <ele>915</ele>
        <time>2021-01-19T17:09:03Z</time>
      </trkpt>
      <trkpt lat="45.36995" lon="3.97424">
        <ele>914</ele>
        <time>2021-01-19T17:09:34Z</time>
      </trkpt>
      <trkpt lat="45.37018" lon="3.97381">
        <ele>913</ele>
        <time>2021-01-19T17:10:04Z</time>
      </trkpt>
      <trkpt lat="45.37003" lon="3.9737">
        <ele>911</ele>
        <time>2021-01-19T17:10:18Z</time>
      </trkpt>
      <trkpt lat="45.37012" lon="3.9735">
        <ele>911</ele>
        <time>2021-01-19T17:10:31Z</time>
      </trkpt>
      <trkpt lat="45.37018" lon="3.97327">
        <ele>910</ele>
        <time>2021-01-19T17:10:45Z</time>
      </trkpt>
      <trkpt lat="45.37037" lon="3.97294">
        <ele>909</ele>
        <time>2021-01-19T17:11:09Z</time>
      </trkpt>
      <trkpt lat="45.37049" lon="3.97234">
        <ele>906</ele>
        <time>2021-01-19T17:11:44Z</time>
      </trkpt>
      <trkpt lat="45.37037" lon="3.97144">
        <ele>904</ele>
        <time>2021-01-19T17:12:35Z</time>
      </trkpt>
      <trkpt lat="45.37025" lon="3.97121">
        <ele>903</ele>
        <time>2021-01-19T17:12:52Z</time>
      </trkpt>
      <trkpt lat="45.37025" lon="3.97085">
        <ele>902</ele>
        <time>2021-01-19T17:13:12Z</time>
      </trkpt>
      <trkpt lat="45.37006" lon="3.96991">
        <ele>902</ele>
        <time>2021-01-19T17:14:07Z</time>
      </trkpt>
      <trkpt lat="45.37" lon="3.96933">
        <ele>903</ele>
        <time>2021-01-19T17:14:40Z</time>
      </trkpt>
      <trkpt lat="45.37" lon="3.9688">
        <ele>907</ele>
        <time>2021-01-19T17:15:10Z</time>
      </trkpt>
      <trkpt lat="45.3699" lon="3.96761">
        <ele>918</ele>
        <time>2021-01-19T17:16:17Z</time>
      </trkpt>
      <trkpt lat="45.36976" lon="3.96683">
        <ele>921</ele>
        <time>2021-01-19T17:17:02Z</time>
      </trkpt>
      <trkpt lat="45.36976" lon="3.96582">
        <ele>921</ele>
        <time>2021-01-19T17:17:59Z</time>
      </trkpt>
      <trkpt lat="45.36985" lon="3.96507">
        <ele>919</ele>
        <time>2021-01-19T17:18:42Z</time>
      </trkpt>
      <trkpt lat="45.36996" lon="3.96462">
        <ele>918</ele>
        <time>2021-01-19T17:19:09Z</time>
      </trkpt>
      <trkpt lat="45.37" lon="3.96317">
        <ele>913</ele>
        <time>2021-01-19T17:20:30Z</time>
      </trkpt>
      <trkpt lat="45.36971" lon="3.96058">
        <ele>902</ele>
        <time>2021-01-19T17:22:58Z</time>
      </trkpt>
      <trkpt lat="45.36956" lon="3.96029">
        <ele>902</ele>
        <time>2021-01-19T17:23:18Z</time>
      </trkpt>
      <trkpt lat="45.36946" lon="3.95999">
        <ele>901</ele>
        <time>2021-01-19T17:23:37Z</time>
      </trkpt>
      <trkpt lat="45.36905" lon="3.95923">
        <ele>899</ele>
        <time>2021-01-19T17:24:31Z</time>
      </trkpt>
      <trkpt lat="45.36894" lon="3.95908">
        <ele>899</ele>
        <time>2021-01-19T17:24:43Z</time>
      </trkpt>
      <trkpt lat="45.3688" lon="3.95899">
        <ele>899</ele>
        <time>2021-01-19T17:24:55Z</time>
      </trkpt>
      <trkpt lat="45.36846" lon="3.95847">
        <ele>901</ele>
        <time>2021-01-19T17:25:35Z</time>
      </trkpt>
      <trkpt lat="45.36829" lon="3.95813">
        <ele>902</ele>
        <time>2021-01-19T17:25:59Z</time>
      </trkpt>
      <trkpt lat="45.36819" lon="3.95742">
        <ele>907</ele>
        <time>2021-01-19T17:26:39Z</time>
      </trkpt>
      <trkpt lat="45.36819" lon="3.95704">
        <ele>909</ele>
        <time>2021-01-19T17:27:01Z</time>
      </trkpt>
      <trkpt lat="45.36806" lon="3.95647">
        <ele>912</ele>
        <time>2021-01-19T17:27:35Z</time>
      </trkpt>
      <trkpt lat="45.3679" lon="3.95598">
        <ele>916</ele>
        <time>2021-01-19T17:28:05Z</time>
      </trkpt>
      <trkpt lat="45.36789" lon="3.95558">
        <ele>918</ele>
        <time>2021-01-19T17:28:27Z</time>
      </trkpt>
      <trkpt lat="45.36777" lon="3.95394">
        <ele>919</ele>
        <time>2021-01-19T17:30:00Z</time>
      </trkpt>
      <trkpt lat="45.36783" lon="3.9534">
        <ele>919</ele>
        <time>2021-01-19T17:30:31Z</time>
      </trkpt>
      <trkpt lat="45.36791" lon="3.95304">
        <ele>919</ele>
        <time>2021-01-19T17:30:52Z</time>
      </trkpt>
      <trkpt lat="45.36825" lon="3.95211">
        <ele>919</ele>
        <time>2021-01-19T17:31:51Z</time>
      </trkpt>
      <trkpt lat="45.36862" lon="3.95176">
        <ele>921</ele>
        <time>2021-01-19T17:32:27Z</time>
      </trkpt>
      <trkpt lat="45.36887" lon="3.95131">
        <ele>922</ele>
        <time>2021-01-19T17:32:59Z</time>
      </trkpt>
      <trkpt lat="45.36879" lon="3.95041">
        <ele>921</ele>
        <time>2021-01-19T17:33:50Z</time>
      </trkpt>
      <trkpt lat="45.36889" lon="3.95004">
        <ele>921</ele>
        <time>2021-01-19T17:34:12Z</time>
      </trkpt>
      <trkpt lat="45.36911" lon="3.94948">
        <ele>922</ele>
        <time>2021-01-19T17:34:48Z</time>
      </trkpt>
      <trkpt lat="45.36927" lon="3.94857">
        <ele>921</ele>
        <time>2021-01-19T17:35:41Z</time>
      </trkpt>
      <trkpt lat="45.36928" lon="3.94829">
        <ele>921</ele>
        <time>2021-01-19T17:35:57Z</time>
      </trkpt>
      <trkpt lat="45.36922" lon="3.94791">
        <ele>921</ele>
        <time>2021-01-19T17:36:19Z</time>
      </trkpt>
      <trkpt lat="45.36933" lon="3.9472">
        <ele>921</ele>
        <time>2021-01-19T17:37:00Z</time>
      </trkpt>
      <trkpt lat="45.36926" lon="3.94687">
        <ele>923</ele>
        <time>2021-01-19T17:37:19Z</time>
      </trkpt>
      <trkpt lat="45.36923" lon="3.94659">
        <ele>924</ele>
        <time>2021-01-19T17:37:35Z</time>
      </trkpt>
      <trkpt lat="45.36924" lon="3.94633">
        <ele>924</ele>
        <time>2021-01-19T17:37:50Z</time>
      </trkpt>
      <trkpt lat="45.36954" lon="3.94499">
        <ele>920</ele>
        <time>2021-01-19T17:39:09Z</time>
      </trkpt>
      <trkpt lat="45.36957" lon="3.9441">
        <ele>918</ele>
        <time>2021-01-19T17:39:59Z</time>
      </trkpt>
      <trkpt lat="45.36966" lon="3.94365">
        <ele>918</ele>
        <time>2021-01-19T17:40:25Z</time>
      </trkpt>
      <trkpt lat="45.3699" lon="3.94284">
        <ele>917</ele>
        <time>2021-01-19T17:41:15Z</time>
      </trkpt>
      <trkpt lat="45.3699" lon="3.94254">
        <ele>918</ele>
        <time>2021-01-19T17:41:32Z</time>
      </trkpt>
      <trkpt lat="45.36985" lon="3.94191">
        <ele>916</ele>
        <time>2021-01-19T17:42:07Z</time>
      </trkpt>
      <trkpt lat="45.36985" lon="3.941">
        <ele>916</ele>
        <time>2021-01-19T17:42:58Z</time>
      </trkpt>
      <trkpt lat="45.3698" lon="3.94049">
        <ele>918</ele>
        <time>2021-01-19T17:43:27Z</time>
      </trkpt>
      <trkpt lat="45.3698" lon="3.94008">
        <ele>920</ele>
        <time>2021-01-19T17:43:50Z</time>
      </trkpt>
      <trkpt lat="45.36989" lon="3.93934">
        <ele>923</ele>
        <time>2021-01-19T17:44:33Z</time>
      </trkpt>
      <trkpt lat="45.37" lon="3.93874">
        <ele>923</ele>
        <time>2021-01-19T17:45:08Z</time>
      </trkpt>
      <trkpt lat="45.37015" lon="3.93768">
        <ele>922</ele>
        <time>2021-01-19T17:46:08Z</time>
      </trkpt>
      <trkpt lat="45.37018" lon="3.93714">
        <ele>922</ele>
        <time>2021-01-19T17:46:39Z</time>
      </trkpt>
      <trkpt lat="45.37024" lon="3.93669">
        <ele>921</ele>
        <time>2021-01-19T17:47:05Z</time>
      </trkpt>
      <trkpt lat="45.37031" lon="3.93577">
        <ele>921</ele>
        <time>2021-01-19T17:47:57Z</time>
      </trkpt>
      <trkpt lat="45.37019" lon="3.93438">
        <ele>922</ele>
        <time>2021-01-19T17:49:15Z</time>
      </trkpt>
      <trkpt lat="45.37014" lon="3.9329">
        <ele>918</ele>
        <time>2021-01-19T17:50:39Z</time>
      </trkpt>
      <trkpt lat="45.37021" lon="3.93189">
        <ele>918</ele>
        <time>2021-01-19T17:51:36Z</time>
      </trkpt>
      <trkpt lat="45.3703" lon="3.93126">
        <ele>917</ele>
        <time>2021-01-19T17:52:12Z</time>
      </trkpt>
      <trkpt lat="45.37028" lon="3.93099">
        <ele>916</ele>
        <time>2021-01-19T17:52:27Z</time>
      </trkpt>
      <trkpt lat="45.37018" lon="3.93042">
        <ele>914</ele>
        <time>2021-01-19T17:53:00Z</time>
      </trkpt>
      <trkpt lat="45.37006" lon="3.92991">
        <ele>912</ele>
        <time>2021-01-19T17:53:31Z</time>
      </trkpt>
      <trkpt lat="45.36998" lon="3.92934">
        <ele>910</ele>
        <time>2021-01-19T17:54:03Z</time>
      </trkpt>
      <trkpt lat="45.36987" lon="3.92885">
        <ele>912</ele>
        <time>2021-01-19T17:54:32Z</time>
      </trkpt>
      <trkpt lat="45.36979" lon="3.92834">
        <ele>914</ele>
        <time>2021-01-19T17:55:02Z</time>
      </trkpt>
      <trkpt lat="45.36968" lon="3.92785">
        <ele>914</ele>
        <time>2021-01-19T17:55:31Z</time>
      </trkpt>
      <trkpt lat="45.36958" lon="3.92718">
        <ele>913</ele>
        <time>2021-01-19T17:56:09Z</time>
      </trkpt>
      <trkpt lat="45.3697" lon="3.92725">
        <ele>913</ele>
        <time>2021-01-19T17:56:20Z</time>
      </trkpt>
      <trkpt lat="45.37006" lon="3.9273">
        <ele>912</ele>
        <time>2021-01-19T17:56:48Z</time>
      </trkpt>
      <trkpt lat="45.37037" lon="3.92728">
        <ele>910</ele>
        <time>2021-01-19T17:57:13Z</time>
      </trkpt>
      <trkpt lat="45.37005" lon="3.92664">
        <ele>912</ele>
        <time>2021-01-19T17:57:58Z</time>
      </trkpt>
      <trkpt lat="45.36989" lon="3.92644">
        <ele>912</ele>
        <time>2021-01-19T17:58:15Z</time>
      </trkpt>
      <trkpt lat="45.36911" lon="3.92529">
        <ele>910</ele>
        <time>2021-01-19T17:59:44Z</time>
      </trkpt>
      <trkpt lat="45.36912" lon="3.9251">
        <ele>909</ele>
        <time>2021-01-19T17:59:55Z</time>
      </trkpt>
      <trkpt lat="45.36917" lon="3.92479">
        <ele>908</ele>
        <time>2021-01-19T18:00:13Z</time>
      </trkpt>
      <trkpt lat="45.36941" lon="3.92401">
        <ele>906</ele>
        <time>2021-01-19T18:01:01Z</time>
      </trkpt>
      <trkpt lat="45.36985" lon="3.92274">
        <ele>902</ele>
        <time>2021-01-19T18:02:21Z</time>
      </trkpt>
      <trkpt lat="45.37008" lon="3.92217">
        <ele>900</ele>
        <time>2021-01-19T18:02:58Z</time>
      </trkpt>
      <trkpt lat="45.37017" lon="3.92156">
        <ele>898</ele>
        <time>2021-01-19T18:03:33Z</time>
      </trkpt>
      <trkpt lat="45.37026" lon="3.92115">
        <ele>895</ele>
        <time>2021-01-19T18:03:57Z</time>
      </trkpt>
      <trkpt lat="45.37083" lon="3.92032">
        <ele>886</ele>
        <time>2021-01-19T18:05:02Z</time>
      </trkpt>
      <trkpt lat="45.37112" lon="3.91983">
        <ele>883</ele>
        <time>2021-01-19T18:05:38Z</time>
      </trkpt>
      <trkpt lat="45.37132" lon="3.9192">
        <ele>881</ele>
        <time>2021-01-19T18:06:17Z</time>
      </trkpt>
      <trkpt lat="45.37142" lon="3.9187">
        <ele>878</ele>
        <time>2021-01-19T18:06:46Z</time>
      </trkpt>
      <trkpt lat="45.3715" lon="3.91845">
        <ele>876</ele>
        <time>2021-01-19T18:07:02Z</time>
      </trkpt>
      <trkpt lat="45.37195" lon="3.91739">
        <ele>866</ele>
        <time>2021-01-19T18:08:11Z</time>
      </trkpt>
      <trkpt lat="45.3723" lon="3.91639">
        <ele>860</ele>
        <time>2021-01-19T18:09:14Z</time>
      </trkpt>
      <trkpt lat="45.37231" lon="3.91626">
        <ele>859</ele>
        <time>2021-01-19T18:09:22Z</time>
      </trkpt>
      <trkpt lat="45.37223" lon="3.91615">
        <ele>859</ele>
        <time>2021-01-19T18:09:30Z</time>
      </trkpt>
      <trkpt lat="45.37251" lon="3.91609">
        <ele>857</ele>
        <time>2021-01-19T18:09:53Z</time>
      </trkpt>
      <trkpt lat="45.37262" lon="3.9157">
        <ele>855</ele>
        <time>2021-01-19T18:10:17Z</time>
      </trkpt>
      <trkpt lat="45.37272" lon="3.91552">
        <ele>854</ele>
        <time>2021-01-19T18:10:30Z</time>
      </trkpt>
      <trkpt lat="45.37279" lon="3.91519">
        <ele>853</ele>
        <time>2021-01-19T18:10:49Z</time>
      </trkpt>
      <trkpt lat="45.37272" lon="3.91478">
        <ele>850</ele>
        <time>2021-01-19T18:11:13Z</time>
      </trkpt>
      <trkpt lat="45.37277" lon="3.91463">
        <ele>849</ele>
        <time>2021-01-19T18:11:22Z</time>
      </trkpt>
      <trkpt lat="45.37297" lon="3.91444">
        <ele>847</ele>
        <time>2021-01-19T18:11:41Z</time>
      </trkpt>
      <trkpt lat="45.37302" lon="3.9143">
        <ele>846</ele>
        <time>2021-01-19T18:11:50Z</time>
      </trkpt>
      <trkpt lat="45.37303" lon="3.91414">
        <ele>845</ele>
        <time>2021-01-19T18:11:59Z</time>
      </trkpt>
      <trkpt lat="45.37297" lon="3.91397">
        <ele>844</ele>
        <time>2021-01-19T18:12:10Z</time>
      </trkpt>
      <trkpt lat="45.37302" lon="3.91374">
        <ele>844</ele>
        <time>2021-01-19T18:12:24Z</time>
      </trkpt>
      <trkpt lat="45.37349" lon="3.91299">
        <ele>847</ele>
        <time>2021-01-19T18:13:20Z</time>
      </trkpt>
      <trkpt lat="45.37367" lon="3.91355">
        <ele>850</ele>
        <time>2021-01-19T18:13:55Z</time>
      </trkpt>
      <trkpt lat="45.3739" lon="3.91375">
        <ele>852</ele>
        <time>2021-01-19T18:14:16Z</time>
      </trkpt>
      <trkpt lat="45.3742" lon="3.91417">
        <ele>853</ele>
        <time>2021-01-19T18:14:50Z</time>
      </trkpt>
      <trkpt lat="45.37442" lon="3.91443">
        <ele>853</ele>
        <time>2021-01-19T18:15:13Z</time>
      </trkpt>
      <trkpt lat="45.37543" lon="3.91492">
        <ele>854</ele>
        <time>2021-01-19T18:16:38Z</time>
      </trkpt>
      <trkpt lat="45.37567" lon="3.91512">
        <ele>855</ele>
        <time>2021-01-19T18:17:01Z</time>
      </trkpt>
      <trkpt lat="45.37573" lon="3.91522">
        <ele>856</ele>
        <time>2021-01-19T18:17:08Z</time>
      </trkpt>
      <trkpt lat="45.37577" lon="3.91537">
        <ele>855</ele>
        <time>2021-01-19T18:17:17Z</time>
      </trkpt>
      <trkpt lat="45.37577" lon="3.9156">
        <ele>854</ele>
        <time>2021-01-19T18:17:30Z</time>
      </trkpt>
      <trkpt lat="45.37589" lon="3.91711">
        <ele>857</ele>
        <time>2021-01-19T18:18:55Z</time>
      </trkpt>
      <trkpt lat="45.3759" lon="3.91754">
        <ele>859</ele>
        <time>2021-01-19T18:19:20Z</time>
      </trkpt>
      <trkpt lat="45.37587" lon="3.91799">
        <ele>857</ele>
        <time>2021-01-19T18:19:45Z</time>
      </trkpt>
      <trkpt lat="45.37583" lon="3.91822">
        <ele>856</ele>
        <time>2021-01-19T18:19:58Z</time>
      </trkpt>
      <trkpt lat="45.3759" lon="3.91845">
        <ele>856</ele>
        <time>2021-01-19T18:20:12Z</time>
      </trkpt>
      <trkpt lat="45.3761" lon="3.9185">
        <ele>857</ele>
        <time>2021-01-19T18:20:29Z</time>
      </trkpt>
      <trkpt lat="45.37627" lon="3.91845">
        <ele>859</ele>
        <time>2021-01-19T18:20:43Z</time>
      </trkpt>
      <trkpt lat="45.3767" lon="3.91843">
        <ele>864</ele>
        <time>2021-01-19T18:21:17Z</time>
      </trkpt>
      <trkpt lat="45.37695" lon="3.91846">
        <ele>867</ele>
        <time>2021-01-19T18:21:37Z</time>
      </trkpt>
      <trkpt lat="45.37722" lon="3.91863">
        <ele>869</ele>
        <time>2021-01-19T18:22:01Z</time>
      </trkpt>
      <trkpt lat="45.37731" lon="3.9188">
        <ele>868</ele>
        <time>2021-01-19T18:22:13Z</time>
      </trkpt>
      <trkpt lat="45.37736" lon="3.91896">
        <ele>867</ele>
        <time>2021-01-19T18:22:23Z</time>
      </trkpt>
      <trkpt lat="45.37737" lon="3.9191">
        <ele>866</ele>
        <time>2021-01-19T18:22:31Z</time>
      </trkpt>
      <trkpt lat="45.37723" lon="3.91932">
        <ele>865</ele>
        <time>2021-01-19T18:22:47Z</time>
      </trkpt>
      <trkpt lat="45.37687" lon="3.91965">
        <ele>862</ele>
        <time>2021-01-19T18:23:21Z</time>
      </trkpt>
      <trkpt lat="45.3768" lon="3.91987">
        <ele>862</ele>
        <time>2021-01-19T18:23:35Z</time>
      </trkpt>
      <trkpt lat="45.37676" lon="3.92012">
        <ele>862</ele>
        <time>2021-01-19T18:23:50Z</time>
      </trkpt>
      <trkpt lat="45.37672" lon="3.92121">
        <ele>871</ele>
        <time>2021-01-19T18:24:51Z</time>
      </trkpt>
      <trkpt lat="45.37669" lon="3.9215">
        <ele>873</ele>
        <time>2021-01-19T18:25:07Z</time>
      </trkpt>
      <trkpt lat="45.37634" lon="3.92201">
        <ele>873</ele>
        <time>2021-01-19T18:25:47Z</time>
      </trkpt>
      <trkpt lat="45.3762" lon="3.92227">
        <ele>873</ele>
        <time>2021-01-19T18:26:06Z</time>
      </trkpt>
      <trkpt lat="45.37599" lon="3.92288">
        <ele>874</ele>
        <time>2021-01-19T18:26:44Z</time>
      </trkpt>
      <trkpt lat="45.37563" lon="3.92364">
        <ele>873</ele>
        <time>2021-01-19T18:27:36Z</time>
      </trkpt>
      <trkpt lat="45.37541" lon="3.92403">
        <ele>871</ele>
        <time>2021-01-19T18:28:04Z</time>
      </trkpt>
      <trkpt lat="45.3752" lon="3.92462">
        <ele>868</ele>
        <time>2021-01-19T18:28:41Z</time>
      </trkpt>
      <trkpt lat="45.37517" lon="3.92485">
        <ele>868</ele>
        <time>2021-01-19T18:28:54Z</time>
      </trkpt>
      <trkpt lat="45.37521" lon="3.92509">
        <ele>869</ele>
        <time>2021-01-19T18:29:08Z</time>
      </trkpt>
      <trkpt lat="45.37527" lon="3.92528">
        <ele>870</ele>
        <time>2021-01-19T18:29:20Z</time>
      </trkpt>
      <trkpt lat="45.37558" lon="3.92545">
        <ele>872</ele>
        <time>2021-01-19T18:29:46Z</time>
      </trkpt>
      <trkpt lat="45.37602" lon="3.92598">
        <ele>873</ele>
        <time>2021-01-19T18:30:32Z</time>
      </trkpt>
      <trkpt lat="45.37641" lon="3.9263">
        <ele>875</ele>
        <time>2021-01-19T18:31:09Z</time>
      </trkpt>
      <trkpt lat="45.37672" lon="3.92635">
        <ele>877</ele>
        <time>2021-01-19T18:31:34Z</time>
      </trkpt>
      <trkpt lat="45.37682" lon="3.92643">
        <ele>877</ele>
        <time>2021-01-19T18:31:43Z</time>
      </trkpt>
      <trkpt lat="45.37691" lon="3.92659">
        <ele>876</ele>
        <time>2021-01-19T18:31:54Z</time>
      </trkpt>
      <trkpt lat="45.37716" lon="3.92668">
        <ele>878</ele>
        <time>2021-01-19T18:32:15Z</time>
      </trkpt>
      <trkpt lat="45.37739" lon="3.92665">
        <ele>880</ele>
        <time>2021-01-19T18:32:33Z</time>
      </trkpt>
      <trkpt lat="45.37779" lon="3.92646">
        <ele>888</ele>
        <time>2021-01-19T18:33:07Z</time>
      </trkpt>
      <trkpt lat="45.3779" lon="3.92646">
        <ele>889</ele>
        <time>2021-01-19T18:33:16Z</time>
      </trkpt>
      <trkpt lat="45.37802" lon="3.92656">
        <ele>890</ele>
        <time>2021-01-19T18:33:27Z</time>
      </trkpt>
      <trkpt lat="45.37802" lon="3.92679">
        <ele>889</ele>
        <time>2021-01-19T18:33:40Z</time>
      </trkpt>
      <trkpt lat="45.3779" lon="3.92702">
        <ele>887</ele>
        <time>2021-01-19T18:33:56Z</time>
      </trkpt>
      <trkpt lat="45.37781" lon="3.92733">
        <ele>885</ele>
        <time>2021-01-19T18:34:15Z</time>
      </trkpt>
      <trkpt lat="45.37783" lon="3.92771">
        <ele>884</ele>
        <time>2021-01-19T18:34:36Z</time>
      </trkpt>
      <trkpt lat="45.37787" lon="3.92783">
        <ele>883</ele>
        <time>2021-01-19T18:34:44Z</time>
      </trkpt>
      <trkpt lat="45.37818" lon="3.92831">
        <ele>881</ele>
        <time>2021-01-19T18:35:21Z</time>
      </trkpt>
      <trkpt lat="45.37832" lon="3.92846">
        <ele>880</ele>
        <time>2021-01-19T18:35:35Z</time>
      </trkpt>
      <trkpt lat="45.37842" lon="3.92853">
        <ele>880</ele>
        <time>2021-01-19T18:35:44Z</time>
      </trkpt>
      <trkpt lat="45.37854" lon="3.92848">
        <ele>880</ele>
        <time>2021-01-19T18:35:54Z</time>
      </trkpt>
      <trkpt lat="45.37875" lon="3.92822">
        <ele>883</ele>
        <time>2021-01-19T18:36:16Z</time>
      </trkpt>
      <trkpt lat="45.37903" lon="3.92814">
        <ele>885</ele>
        <time>2021-01-19T18:36:39Z</time>
      </trkpt>
      <trkpt lat="45.37919" lon="3.92833">
        <ele>882</ele>
        <time>2021-01-19T18:36:55Z</time>
      </trkpt>
      <trkpt lat="45.3795" lon="3.92889">
        <ele>887</ele>
        <time>2021-01-19T18:37:35Z</time>
      </trkpt>
      <trkpt lat="45.37964" lon="3.92902">
        <ele>889</ele>
        <time>2021-01-19T18:37:49Z</time>
      </trkpt>
      <trkpt lat="45.38083" lon="3.92959">
        <ele>903</ele>
        <time>2021-01-19T18:39:29Z</time>
      </trkpt>
      <trkpt lat="45.38115" lon="3.92964">
        <ele>904</ele>
        <time>2021-01-19T18:39:55Z</time>
      </trkpt>
      <trkpt lat="45.3816" lon="3.92985">
        <ele>904</ele>
        <time>2021-01-19T18:40:33Z</time>
      </trkpt>
      <trkpt lat="45.38212" lon="3.93005">
        <ele>901</ele>
        <time>2021-01-19T18:41:16Z</time>
      </trkpt>
      <trkpt lat="45.38236" lon="3.93008">
        <ele>900</ele>
        <time>2021-01-19T18:41:35Z</time>
      </trkpt>
      <trkpt lat="45.38285" lon="3.93078">
        <ele>897</ele>
        <time>2021-01-19T18:42:31Z</time>
      </trkpt>
      <trkpt lat="45.383" lon="3.93106">
        <ele>898</ele>
        <time>2021-01-19T18:42:51Z</time>
      </trkpt>
      <trkpt lat="45.38321" lon="3.93084">
        <ele>899</ele>
        <time>2021-01-19T18:43:12Z</time>
      </trkpt>
      <trkpt lat="45.38359" lon="3.93034">
        <ele>903</ele>
        <time>2021-01-19T18:43:53Z</time>
      </trkpt>
      <trkpt lat="45.38374" lon="3.92995">
        <ele>905</ele>
        <time>2021-01-19T18:44:18Z</time>
      </trkpt>
      <trkpt lat="45.38383" lon="3.92955">
        <ele>908</ele>
        <time>2021-01-19T18:44:42Z</time>
      </trkpt>
      <trkpt lat="45.38398" lon="3.9291">
        <ele>912</ele>
        <time>2021-01-19T18:45:10Z</time>
      </trkpt>
      <trkpt lat="45.38402" lon="3.92885">
        <ele>912</ele>
        <time>2021-01-19T18:45:24Z</time>
      </trkpt>
      <trkpt lat="45.38436" lon="3.92807">
        <ele>915</ele>
        <time>2021-01-19T18:46:16Z</time>
      </trkpt>
      <trkpt lat="45.38444" lon="3.92776">
        <ele>916</ele>
        <time>2021-01-19T18:46:34Z</time>
      </trkpt>
      <trkpt lat="45.38461" lon="3.92745">
        <ele>918</ele>
        <time>2021-01-19T18:46:57Z</time>
      </trkpt>
      <trkpt lat="45.38473" lon="3.92731">
        <ele>919</ele>
        <time>2021-01-19T18:47:09Z</time>
      </trkpt>
      <trkpt lat="45.38487" lon="3.92641">
        <ele>921</ele>
        <time>2021-01-19T18:48:01Z</time>
      </trkpt>
      <trkpt lat="45.38493" lon="3.92617">
        <ele>921</ele>
        <time>2021-01-19T18:48:15Z</time>
      </trkpt>
      <trkpt lat="45.3852" lon="3.92561">
        <ele>923</ele>
        <time>2021-01-19T18:48:53Z</time>
      </trkpt>
      <trkpt lat="45.38526" lon="3.92541">
        <ele>925</ele>
        <time>2021-01-19T18:49:06Z</time>
      </trkpt>
      <trkpt lat="45.38554" lon="3.92335">
        <ele>927</ele>
        <time>2021-01-19T18:51:04Z</time>
      </trkpt>
      <trkpt lat="45.38568" lon="3.92284">
        <ele>929</ele>
        <time>2021-01-19T18:51:34Z</time>
      </trkpt>
      <trkpt lat="45.38595" lon="3.92203">
        <ele>929</ele>
        <time>2021-01-19T18:52:25Z</time>
      </trkpt>
      <trkpt lat="45.386" lon="3.9218">
        <ele>929</ele>
        <time>2021-01-19T18:52:38Z</time>
      </trkpt>
      <trkpt lat="45.38619" lon="3.92036">
        <ele>933</ele>
        <time>2021-01-19T18:54:01Z</time>
      </trkpt>
      <trkpt lat="45.38627" lon="3.91934">
        <ele>938</ele>
        <time>2021-01-19T18:54:58Z</time>
      </trkpt>
      <trkpt lat="45.38629" lon="3.91826">
        <ele>938</ele>
        <time>2021-01-19T18:55:59Z</time>
      </trkpt>
      <trkpt lat="45.38622" lon="3.91722">
        <ele>935</ele>
        <time>2021-01-19T18:56:58Z</time>
      </trkpt>
      <trkpt lat="45.38594" lon="3.91584">
        <ele>928</ele>
        <time>2021-01-19T18:58:19Z</time>
      </trkpt>
      <trkpt lat="45.38687" lon="3.91641">
        <ele>932</ele>
        <time>2021-01-19T18:59:40Z</time>
      </trkpt>
      <trkpt lat="45.38716" lon="3.91663">
        <ele>933</ele>
        <time>2021-01-19T19:00:06Z</time>
      </trkpt>
      <trkpt lat="45.3874" lon="3.91687">
        <ele>933</ele>
        <time>2021-01-19T19:00:30Z</time>
      </trkpt>
      <trkpt lat="45.38765" lon="3.91702">
        <ele>932</ele>
        <time>2021-01-19T19:00:51Z</time>
      </trkpt>
      <trkpt lat="45.38802" lon="3.9174">
        <ele>929</ele>
        <time>2021-01-19T19:01:28Z</time>
      </trkpt>
      <trkpt lat="45.38914" lon="3.91844">
        <ele>922</ele>
        <time>2021-01-19T19:03:15Z</time>
      </trkpt>
      <trkpt lat="45.3898" lon="3.91887">
        <ele>925</ele>
        <time>2021-01-19T19:04:13Z</time>
      </trkpt>
      <trkpt lat="45.39011" lon="3.91894">
        <ele>926</ele>
        <time>2021-01-19T19:04:38Z</time>
      </trkpt>
      <trkpt lat="45.39028" lon="3.91903">
        <ele>926</ele>
        <time>2021-01-19T19:04:53Z</time>
      </trkpt>
      <trkpt lat="45.39076" lon="3.91887">
        <ele>926</ele>
        <time>2021-01-19T19:05:32Z</time>
      </trkpt>
      <trkpt lat="45.39073" lon="3.91875">
        <ele>926</ele>
        <time>2021-01-19T19:05:39Z</time>
      </trkpt>
      <trkpt lat="45.3908" lon="3.91819">
        <ele>923</ele>
        <time>2021-01-19T19:06:11Z</time>
      </trkpt>
      <trkpt lat="45.3908" lon="3.91788">
        <ele>921</ele>
        <time>2021-01-19T19:06:29Z</time>
      </trkpt>
      <trkpt lat="45.39071" lon="3.91718">
        <ele>918</ele>
        <time>2021-01-19T19:07:09Z</time>
      </trkpt>
      <trkpt lat="45.39069" lon="3.91674">
        <ele>917</ele>
        <time>2021-01-19T19:07:33Z</time>
      </trkpt>
      <trkpt lat="45.39061" lon="3.91599">
        <ele>915</ele>
        <time>2021-01-19T19:08:16Z</time>
      </trkpt>
      <trkpt lat="45.39032" lon="3.9135">
        <ele>907</ele>
        <time>2021-01-19T19:10:38Z</time>
      </trkpt>
      <trkpt lat="45.39014" lon="3.91241">
        <ele>906</ele>
        <time>2021-01-19T19:11:41Z</time>
      </trkpt>
      <trkpt lat="45.39006" lon="3.9121">
        <ele>906</ele>
        <time>2021-01-19T19:12:00Z</time>
      </trkpt>
      <trkpt lat="45.39001" lon="3.91165">
        <ele>907</ele>
        <time>2021-01-19T19:12:25Z</time>
      </trkpt>
      <trkpt lat="45.39006" lon="3.91154">
        <ele>906</ele>
        <time>2021-01-19T19:12:33Z</time>
      </trkpt>
      <trkpt lat="45.39025" lon="3.91185">
        <ele>907</ele>
        <time>2021-01-19T19:12:56Z</time>
      </trkpt>
      <trkpt lat="45.39043" lon="3.91182">
        <ele>907</ele>
        <time>2021-01-19T19:13:10Z</time>
      </trkpt>
      <trkpt lat="45.39059" lon="3.91185">
        <ele>906</ele>
        <time>2021-01-19T19:13:23Z</time>
      </trkpt>
      <trkpt lat="45.39075" lon="3.91195">
        <ele>906</ele>
        <time>2021-01-19T19:13:37Z</time>
      </trkpt>
      <trkpt lat="45.39119" lon="3.91204">
        <ele>905</ele>
        <time>2021-01-19T19:14:13Z</time>
      </trkpt>
      <trkpt lat="45.39157" lon="3.91208">
        <ele>905</ele>
        <time>2021-01-19T19:14:43Z</time>
      </trkpt>
      <trkpt lat="45.39193" lon="3.91209">
        <ele>902</ele>
        <time>2021-01-19T19:15:12Z</time>
      </trkpt>
      <trkpt lat="45.39223" lon="3.91207">
        <ele>899</ele>
        <time>2021-01-19T19:15:36Z</time>
      </trkpt>
      <trkpt lat="45.39251" lon="3.91211">
        <ele>897</ele>
        <time>2021-01-19T19:15:59Z</time>
      </trkpt>
      <trkpt lat="45.3929" lon="3.91232">
        <ele>897</ele>
        <time>2021-01-19T19:16:32Z</time>
      </trkpt>
      <trkpt lat="45.39334" lon="3.91245">
        <ele>896</ele>
        <time>2021-01-19T19:17:08Z</time>
      </trkpt>
      <trkpt lat="45.39364" lon="3.91257">
        <ele>897</ele>
        <time>2021-01-19T19:17:33Z</time>
      </trkpt>
      <trkpt lat="45.39426" lon="3.9126">
        <ele>895</ele>
        <time>2021-01-19T19:18:23Z</time>
      </trkpt>
      <trkpt lat="45.395" lon="3.91254">
        <ele>889</ele>
        <time>2021-01-19T19:19:22Z</time>
      </trkpt>
      <trkpt lat="45.39535" lon="3.91257">
        <ele>885</ele>
        <time>2021-01-19T19:19:50Z</time>
      </trkpt>
      <trkpt lat="45.3957" lon="3.91269">
        <ele>883</ele>
        <time>2021-01-19T19:20:19Z</time>
      </trkpt>
      <trkpt lat="45.39598" lon="3.91286">
        <ele>883</ele>
        <time>2021-01-19T19:20:43Z</time>
      </trkpt>
      <trkpt lat="45.39622" lon="3.91303">
        <ele>884</ele>
        <time>2021-01-19T19:21:05Z</time>
      </trkpt>
      <trkpt lat="45.39655" lon="3.9134">
        <ele>884</ele>
        <time>2021-01-19T19:21:38Z</time>
      </trkpt>
      <trkpt lat="45.39692" lon="3.9132">
        <ele>882</ele>
        <time>2021-01-19T19:22:10Z</time>
      </trkpt>
      <trkpt lat="45.3976" lon="3.91288">
        <ele>881</ele>
        <time>2021-01-19T19:23:07Z</time>
      </trkpt>
      <trkpt lat="45.39786" lon="3.91338">
        <ele>883</ele>
        <time>2021-01-19T19:23:42Z</time>
      </trkpt>
      <trkpt lat="45.39796" lon="3.91362">
        <ele>884</ele>
        <time>2021-01-19T19:23:58Z</time>
      </trkpt>
      <trkpt lat="45.39821" lon="3.914">
        <ele>886</ele>
        <time>2021-01-19T19:24:27Z</time>
      </trkpt>
      <trkpt lat="45.39841" lon="3.91416">
        <ele>887</ele>
        <time>2021-01-19T19:24:46Z</time>
      </trkpt>
      <trkpt lat="45.39875" lon="3.91436">
        <ele>889</ele>
        <time>2021-01-19T19:25:15Z</time>
      </trkpt>
      <trkpt lat="45.39906" lon="3.91444">
        <ele>891</ele>
        <time>2021-01-19T19:25:40Z</time>
      </trkpt>
      <trkpt lat="45.3993" lon="3.91457">
        <ele>893</ele>
        <time>2021-01-19T19:26:01Z</time>
      </trkpt>
      <trkpt lat="45.39938" lon="3.91473">
        <ele>894</ele>
        <time>2021-01-19T19:26:12Z</time>
      </trkpt>
      <trkpt lat="45.40049" lon="3.91431">
        <ele>899</ele>
        <time>2021-01-19T19:27:44Z</time>
      </trkpt>
      <trkpt lat="45.40078" lon="3.91427">
        <ele>901</ele>
        <time>2021-01-19T19:28:07Z</time>
      </trkpt>
      <trkpt lat="45.40124" lon="3.91398">
        <ele>901</ele>
        <time>2021-01-19T19:28:48Z</time>
      </trkpt>
      <trkpt lat="45.4016" lon="3.91365">
        <ele>901</ele>
        <time>2021-01-19T19:29:22Z</time>
      </trkpt>
      <trkpt lat="45.40172" lon="3.91362">
        <ele>902</ele>
        <time>2021-01-19T19:29:32Z</time>
      </trkpt>
      <trkpt lat="45.40198" lon="3.91366">
        <ele>903</ele>
        <time>2021-01-19T19:29:52Z</time>
      </trkpt>
      <trkpt lat="45.40223" lon="3.91377">
        <ele>904</ele>
        <time>2021-01-19T19:30:13Z</time>
      </trkpt>
      <trkpt lat="45.40331" lon="3.91365">
        <ele>907</ele>
        <time>2021-01-19T19:31:40Z</time>
      </trkpt>
      <trkpt lat="45.40368" lon="3.91369">
        <ele>907</ele>
        <time>2021-01-19T19:32:10Z</time>
      </trkpt>
      <trkpt lat="45.404" lon="3.9136">
        <ele>906</ele>
        <time>2021-01-19T19:32:36Z</time>
      </trkpt>
      <trkpt lat="45.4045" lon="3.91357">
        <ele>905</ele>
        <time>2021-01-19T19:33:16Z</time>
      </trkpt>
      <trkpt lat="45.40576" lon="3.91336">
        <ele>903</ele>
        <time>2021-01-19T19:34:58Z</time>
      </trkpt>
      <trkpt lat="45.40622" lon="3.91353">
        <ele>901</ele>
        <time>2021-01-19T19:35:36Z</time>
      </trkpt>
      <trkpt lat="45.40651" lon="3.91338">
        <ele>896</ele>
        <time>2021-01-19T19:36:00Z</time>
      </trkpt>
      <trkpt lat="45.4068" lon="3.91287">
        <ele>893</ele>
        <time>2021-01-19T19:36:37Z</time>
      </trkpt>
      <trkpt lat="45.40692" lon="3.9125">
        <ele>893</ele>
        <time>2021-01-19T19:37:00Z</time>
      </trkpt>
      <trkpt lat="45.40735" lon="3.91081">
        <ele>883</ele>
        <time>2021-01-19T19:38:41Z</time>
      </trkpt>
      <trkpt lat="45.40786" lon="3.90916">
        <ele>879</ele>
        <time>2021-01-19T19:40:23Z</time>
      </trkpt>
      <trkpt lat="45.40878" lon="3.90801">
        <ele>874</ele>
        <time>2021-01-19T19:42:01Z</time>
      </trkpt>
      <trkpt lat="45.40906" lon="3.90762">
        <ele>872</ele>
        <time>2021-01-19T19:42:32Z</time>
      </trkpt>
      <trkpt lat="45.40935" lon="3.90785">
        <ele>871</ele>
        <time>2021-01-19T19:42:59Z</time>
      </trkpt>
      <trkpt lat="45.40949" lon="3.90803">
        <ele>871</ele>
        <time>2021-01-19T19:43:14Z</time>
      </trkpt>
      <trkpt lat="45.40964" lon="3.90842">
        <ele>873</ele>
        <time>2021-01-19T19:43:39Z</time>
      </trkpt>
      <trkpt lat="45.40979" lon="3.90858">
        <ele>874</ele>
        <time>2021-01-19T19:43:54Z</time>
      </trkpt>
      <trkpt lat="45.40986" lon="3.90877">
        <ele>875</ele>
        <time>2021-01-19T19:44:06Z</time>
      </trkpt>
      <trkpt lat="45.40989" lon="3.9093">
        <ele>879</ele>
        <time>2021-01-19T19:44:36Z</time>
      </trkpt>
      <trkpt lat="45.40998" lon="3.90966">
        <ele>881</ele>
        <time>2021-01-19T19:44:57Z</time>
      </trkpt>
      <trkpt lat="45.40971" lon="3.91077">
        <ele>886</ele>
        <time>2021-01-19T19:46:03Z</time>
      </trkpt>
      <trkpt lat="45.40938" lon="3.91184">
        <ele>885</ele>
        <time>2021-01-19T19:47:09Z</time>
      </trkpt>
      <trkpt lat="45.40913" lon="3.9125">
        <ele>883</ele>
        <time>2021-01-19T19:47:51Z</time>
      </trkpt>
      <trkpt lat="45.40893" lon="3.91277">
        <ele>884</ele>
        <time>2021-01-19T19:48:13Z</time>
      </trkpt>
      <trkpt lat="45.40866" lon="3.91334">
        <ele>885</ele>
        <time>2021-01-19T19:48:52Z</time>
      </trkpt>
      <trkpt lat="45.40849" lon="3.91375">
        <ele>889</ele>
        <time>2021-01-19T19:49:18Z</time>
      </trkpt>
      <trkpt lat="45.40846" lon="3.91398">
        <ele>890</ele>
        <time>2021-01-19T19:49:32Z</time>
      </trkpt>
      <trkpt lat="45.40869" lon="3.91463">
        <ele>891</ele>
        <time>2021-01-19T19:50:12Z</time>
      </trkpt>
      <trkpt lat="45.40869" lon="3.91533">
        <ele>895</ele>
        <time>2021-01-19T19:50:52Z</time>
      </trkpt>
      <trkpt lat="45.40856" lon="3.91595">
        <ele>900</ele>
        <time>2021-01-19T19:51:28Z</time>
      </trkpt>
      <trkpt lat="45.40852" lon="3.91626">
        <ele>900</ele>
        <time>2021-01-19T19:51:46Z</time>
      </trkpt>
      <trkpt lat="45.40842" lon="3.91717">
        <ele>899</ele>
        <time>2021-01-19T19:52:38Z</time>
      </trkpt>
      <trkpt lat="45.40837" lon="3.91815">
        <ele>899</ele>
        <time>2021-01-19T19:53:33Z</time>
      </trkpt>
      <trkpt lat="45.40826" lon="3.91879">
        <ele>901</ele>
        <time>2021-01-19T19:54:10Z</time>
      </trkpt>
      <trkpt lat="45.4087" lon="3.92049">
        <ele>911</ele>
        <time>2021-01-19T19:55:52Z</time>
      </trkpt>
      <trkpt lat="45.40976" lon="3.91909">
        <ele>899</ele>
        <time>2021-01-19T19:57:48Z</time>
      </trkpt>
      <trkpt lat="45.41022" lon="3.91872">
        <ele>894</ele>
        <time>2021-01-19T19:58:30Z</time>
      </trkpt>
      <trkpt lat="45.4106" lon="3.91832">
        <ele>887</ele>
        <time>2021-01-19T19:59:08Z</time>
      </trkpt>
      <trkpt lat="45.41134" lon="3.91738">
        <ele>866</ele>
        <time>2021-01-19T20:00:27Z</time>
      </trkpt>
      <trkpt lat="45.41162" lon="3.9168">
        <ele>860</ele>
        <time>2021-01-19T20:01:07Z</time>
      </trkpt>
      <trkpt lat="45.41198" lon="3.91725">
        <ele>861</ele>
        <time>2021-01-19T20:01:45Z</time>
      </trkpt>
      <trkpt lat="45.4123" lon="3.91783">
        <ele>864</ele>
        <time>2021-01-19T20:02:26Z</time>
      </trkpt>
      <trkpt lat="45.41249" lon="3.9186">
        <ele>869</ele>
        <time>2021-01-19T20:03:12Z</time>
      </trkpt>
      <trkpt lat="45.4129" lon="3.91928">
        <ele>864</ele>
        <time>2021-01-19T20:04:03Z</time>
      </trkpt>
      <trkpt lat="45.41318" lon="3.91916">
        <ele>858</ele>
        <time>2021-01-19T20:04:26Z</time>
      </trkpt>
      <trkpt lat="45.41331" lon="3.91891">
        <ele>855</ele>
        <time>2021-01-19T20:04:44Z</time>
      </trkpt>
      <trkpt lat="45.41357" lon="3.91874">
        <ele>854</ele>
        <time>2021-01-19T20:05:07Z</time>
      </trkpt>
      <trkpt lat="45.41397" lon="3.91874">
        <ele>854</ele>
        <time>2021-01-19T20:05:39Z</time>
      </trkpt>
      <trkpt lat="45.4144" lon="3.91884">
        <ele>854</ele>
        <time>2021-01-19T20:06:13Z</time>
      </trkpt>
      <trkpt lat="45.41477" lon="3.91921">
        <ele>855</ele>
        <time>2021-01-19T20:06:50Z</time>
      </trkpt>
      <trkpt lat="45.41516" lon="3.92002">
        <ele>857</ele>
        <time>2021-01-19T20:07:45Z</time>
      </trkpt>
      <trkpt lat="45.41524" lon="3.9205">
        <ele>859</ele>
        <time>2021-01-19T20:08:13Z</time>
      </trkpt>
      <trkpt lat="45.41611" lon="3.92218">
        <ele>862</ele>
        <time>2021-01-19T20:10:10Z</time>
      </trkpt>
      <trkpt lat="45.41614" lon="3.92255">
        <ele>863</ele>
        <time>2021-01-19T20:10:31Z</time>
      </trkpt>
      <trkpt lat="45.41607" lon="3.92322">
        <ele>869</ele>
        <time>2021-01-19T20:11:09Z</time>
      </trkpt>
      <trkpt lat="45.41666" lon="3.92463">
        <ele>869</ele>
        <time>2021-01-19T20:12:41Z</time>
      </trkpt>
      <trkpt lat="45.41709" lon="3.926">
        <ele>877</ele>
        <time>2021-01-19T20:14:06Z</time>
      </trkpt>
      <trkpt lat="45.41724" lon="3.92624">
        <ele>878</ele>
        <time>2021-01-19T20:14:24Z</time>
      </trkpt>
      <trkpt lat="45.41773" lon="3.92555">
        <ele>881</ele>
        <time>2021-01-19T20:15:19Z</time>
      </trkpt>
      <trkpt lat="45.41794" lon="3.92497">
        <ele>882</ele>
        <time>2021-01-19T20:15:55Z</time>
      </trkpt>
      <trkpt lat="45.41807" lon="3.92507">
        <ele>883</ele>
        <time>2021-01-19T20:16:07Z</time>
      </trkpt>
      <trkpt lat="45.41824" lon="3.92563">
        <ele>889</ele>
        <time>2021-01-19T20:16:42Z</time>
      </trkpt>
      <trkpt lat="45.41829" lon="3.92609">
        <ele>890</ele>
        <time>2021-01-19T20:17:08Z</time>
      </trkpt>
      <trkpt lat="45.41842" lon="3.92646">
        <ele>892</ele>
        <time>2021-01-19T20:17:31Z</time>
      </trkpt>
      <trkpt lat="45.41846" lon="3.92682">
        <ele>892</ele>
        <time>2021-01-19T20:17:51Z</time>
      </trkpt>
    </trkseg>
  </trk>
</gpx>